メインページ
METAR-TAF:

METAR-TAF

空港 :

ロサンゼルス国際空港

ロサンゼルス, カリフォルニア州, アメリカ合衆国

緯度: 33-56-17N, 経度: 118-23-20W, 海抜: 38m

現時点の気象観測

当レポートは25分前の10:53(UTC)に作成
無風
気温 17°C
湿度 17%
気圧 1024 hPa
視程: 16.1km
高度22000ftの雲は散在している

METAR: KLAX 141053Z COR 00000KT 10SM SCT220 17/M08 A3024 RMK AO2 SLP237 T01671078

時間: 03:18 (11:18 UTC)

予報

当レポートは1時間51分前の09:27(UTC)に作成
予報は14日の 09時(UTC)から 15日の 12時(UTC)まで有効
変向風 3kt
視程: 10km
高度20000ftの千切れ雲あり
14日の 2000時(UTC)から
西の風 8kt
視程: 10km
晴天
15日の 0300時(UTC)から
変向風 3kt
視程: 10km
晴天

TAF: KLAX 140927Z 1409/1512 VRB03KT P6SM BKN200 FM142000 26008KT P6SM SKC FM150300 VRB03KT P6SM SKC

4,000以上の空港の気象観測と天気予報(METAR報とTAF報)

利用可能な観測所は地図上に黄色い丸と赤い丸で示す。

丸の上にカーソルを重ねると観測所名を参照できる。

次にクリックすると気象観測と天気予報を参照できる。

マップの切り替え:黒色「×」印の緑ボタンをクリックして拡大、「-」印の緑ボタンをクリックして縮小、緑色の三角印をクリックして隣りの地図に切り替え


METAR-TAF: